createdAt,value
2019-05-10T00:01:23.542Z,51.08
2019-05-10T00:04:09.761Z,48.63
2019-05-10T00:09:29.029Z,49.80
2019-05-10T00:12:01.799Z,49.05
2019-05-10T00:14:34.832Z,49.13
2019-05-10T00:17:05.049Z,46.50
2019-05-10T00:19:33.561Z,47.75
2019-05-10T00:22:02.021Z,46.40
2019-05-10T00:24:30.461Z,45.20
2019-05-10T00:26:58.927Z,44.83
2019-05-10T00:29:27.363Z,44.83
2019-05-10T00:31:55.803Z,45.92
2019-05-10T00:34:24.289Z,47.35
2019-05-10T00:36:52.733Z,48.63
2019-05-10T00:39:21.327Z,50.15
2019-05-10T00:41:49.814Z,53.87
2019-05-10T00:44:18.254Z,54.05
2019-05-10T00:46:46.694Z,58.45
2019-05-10T00:49:15.183Z,64.60
2019-05-10T00:51:43.625Z,67.10
2019-05-10T00:54:12.077Z,67.00
2019-05-10T00:56:40.625Z,67.30
2019-05-10T00:59:09.066Z,67.30
2019-05-10T01:01:37.522Z,69.90
2019-05-10T01:04:06.010Z,63.35
2019-05-10T01:06:34.528Z,62.95
2019-05-10T01:09:04.346Z,59.18
2019-05-10T01:11:32.817Z,56.20
2019-05-10T01:14:01.263Z,50.28
2019-05-10T01:16:29.698Z,50.88
2019-05-10T01:18:58.169Z,50.43
2019-05-10T01:21:26.894Z,50.55
2019-05-10T01:23:55.354Z,50.13
2019-05-10T01:26:23.901Z,49.08
2019-05-10T01:28:52.362Z,50.45
2019-05-10T01:31:21.194Z,49.93
2019-05-10T01:33:49.661Z,50.92
2019-05-10T01:36:18.178Z,50.70
2019-05-10T01:38:46.628Z,52.48
2019-05-10T01:41:15.097Z,51.70
2019-05-10T01:43:43.563Z,50.73
2019-05-10T01:46:31.390Z,50.17
2019-05-10T01:48:59.834Z,48.95
2019-05-10T01:51:28.273Z,46.77
2019-05-10T01:53:56.764Z,48.50
2019-05-10T01:56:25.337Z,47.50
2019-05-10T01:58:53.786Z,47.25
2019-05-10T02:01:22.278Z,49.10
2019-05-10T02:03:50.718Z,48.25
2019-05-10T02:06:19.231Z,46.65
2019-05-10T02:08:47.721Z,47.45
2019-05-10T02:11:16.229Z,47.98
2019-05-10T02:13:44.684Z,46.85
2019-05-10T02:16:13.167Z,43.33
2019-05-10T02:18:41.614Z,41.68
2019-05-10T02:21:10.072Z,39.78
2019-05-10T02:23:38.736Z,38.05
2019-05-10T02:26:09.853Z,37.93
2019-05-10T02:28:37.389Z,39.55
2019-05-10T02:31:05.858Z,39.30
2019-05-10T02:33:34.345Z,37.48
2019-05-10T02:36:02.862Z,35.85
2019-05-10T02:38:31.407Z,38.10
2019-05-10T02:40:59.935Z,37.55
2019-05-10T02:43:28.447Z,38.83
2019-05-10T02:45:57.144Z,38.25
2019-05-10T02:48:25.590Z,37.30
2019-05-10T02:50:54.043Z,36.95
2019-05-10T02:53:22.870Z,35.83
2019-05-10T02:55:52.160Z,36.00
2019-05-10T02:58:20.589Z,37.13
2019-05-10T03:00:52.311Z,34.50
2019-05-10T03:03:23.892Z,32.53
2019-05-10T03:05:54.182Z,32.28
2019-05-10T03:08:24.050Z,31.95
2019-05-10T03:10:56.969Z,31.60
2019-05-10T03:13:28.642Z,32.60
2019-05-10T03:15:58.992Z,34.83
2019-05-10T03:18:30.906Z,34.20
2019-05-10T03:21:01.022Z,35.00
2019-05-10T03:23:30.251Z,34.98
2019-05-10T03:25:59.408Z,36.33
2019-05-10T03:28:33.296Z,35.73
2019-05-10T03:31:01.779Z,36.30
2019-05-10T03:33:30.311Z,36.98
2019-05-10T03:35:58.858Z,36.28
2019-05-10T03:38:27.370Z,35.35
2019-05-10T03:40:55.945Z,34.30
2019-05-10T03:43:24.411Z,31.90
2019-05-10T03:45:52.860Z,32.85
2019-05-10T03:48:21.365Z,35.05
2019-05-10T03:50:49.850Z,34.45
2019-05-10T03:53:18.349Z,32.83
2019-05-10T03:55:46.794Z,32.83
2019-05-10T03:58:15.313Z,32.75
2019-05-10T04:00:43.799Z,32.93
2019-05-10T04:03:12.314Z,33.98
2019-05-10T04:05:40.868Z,33.85
2019-05-10T04:08:09.377Z,33.55
2019-05-10T04:10:37.888Z,32.05
2019-05-10T04:13:06.383Z,32.48
2019-05-10T04:15:34.898Z,32.53
2019-05-10T04:18:03.347Z,32.30
2019-05-10T04:20:31.964Z,31.48
2019-05-10T04:23:00.437Z,32.00
2019-05-10T04:25:28.896Z,31.25
2019-05-10T04:27:57.619Z,34.15
2019-05-10T04:30:26.130Z,32.67
2019-05-10T04:32:54.584Z,31.93
2019-05-10T04:35:23.079Z,30.52
2019-05-10T04:37:51.519Z,28.65
2019-05-10T04:40:19.965Z,29.20
2019-05-10T04:42:48.434Z,29.40
2019-05-10T04:45:16.969Z,28.47
2019-05-10T04:47:45.412Z,27.62
2019-05-10T04:50:13.957Z,28.23
2019-05-10T04:52:42.419Z,25.88
2019-05-10T04:55:11.086Z,26.40
2019-05-10T04:57:49.885Z,21.97
2019-05-10T05:00:10.017Z,23.47
2019-05-10T05:02:45.821Z,21.35
2019-05-10T05:05:14.781Z,21.25
2019-05-10T05:07:43.304Z,22.22
2019-05-10T05:10:11.923Z,20.50
2019-05-10T05:12:40.478Z,21.17
2019-05-10T05:15:09.560Z,20.27
2019-05-10T05:17:38.050Z,20.43
2019-05-10T05:20:06.562Z,21.30
2019-05-10T05:22:35.097Z,20.10
2019-05-10T05:25:05.189Z,21.23
2019-05-10T05:27:33.650Z,20.23
2019-05-10T05:30:02.910Z,20.68
2019-05-10T05:32:31.385Z,21.35
2019-05-10T05:34:59.838Z,21.30
2019-05-10T05:37:28.289Z,18.12
2019-05-10T05:39:56.778Z,19.85
2019-05-10T05:42:27.848Z,20.72
2019-05-10T05:44:55.393Z,18.82
2019-05-10T05:47:23.881Z,20.77
2019-05-10T05:49:52.333Z,19.02
2019-05-10T05:52:20.857Z,18.55
2019-05-10T05:54:52.830Z,20.20
2019-05-10T05:57:22.105Z,19.85
2019-05-10T05:59:49.711Z,19.20
2019-05-10T06:02:18.258Z,20.23
2019-05-10T06:04:47.670Z,18.35
2019-05-10T06:09:44.064Z,19.75
2019-05-10T06:12:14.128Z,17.23
2019-05-10T06:14:48.955Z,18.80
2019-05-10T06:17:12.976Z,18.02
2019-05-10T06:19:41.426Z,17.90
2019-05-10T06:22:09.970Z,17.20
2019-05-10T06:24:57.843Z,15.30
2019-05-10T06:27:26.291Z,17.10
2019-05-10T06:29:54.740Z,17.40
2019-05-10T06:32:23.479Z,15.72
2019-05-10T06:34:51.954Z,15.33
2019-05-10T06:37:20.456Z,14.65
2019-05-10T06:39:48.952Z,15.58
2019-05-10T06:42:17.462Z,15.35
2019-05-10T06:44:45.919Z,15.32
2019-05-10T06:47:14.424Z,14.98
2019-05-10T06:49:50.787Z,15.00
2019-05-10T06:52:16.063Z,14.40
2019-05-10T06:54:43.248Z,15.45
2019-05-10T06:57:17.528Z,14.55
2019-05-10T06:59:41.886Z,14.55
2019-05-10T07:02:19.954Z,14.55
2019-05-10T07:04:45.239Z,13.65
2019-05-10T07:07:22.318Z,14.28
2019-05-10T07:10:04.277Z,12.85
2019-05-10T07:12:15.153Z,11.35
2019-05-10T07:14:46.079Z,13.28
2019-05-10T07:17:14.566Z,12.47
2019-05-10T07:19:53.178Z,12.63
2019-05-10T07:22:13.202Z,12.53
2019-05-10T07:24:41.682Z,12.95
2019-05-10T07:27:10.215Z,11.95
2019-05-10T07:29:43.213Z,13.38
2019-05-10T07:32:09.015Z,11.90
2019-05-10T07:34:37.605Z,11.33
2019-05-10T07:37:06.233Z,9.95
2019-05-10T07:39:34.706Z,8.83
2019-05-10T07:42:06.781Z,10.48
2019-05-10T07:44:33.329Z,10.03
2019-05-10T07:47:01.818Z,10.63
2019-05-10T07:49:32.569Z,9.65
2019-05-10T07:52:17.009Z,8.75
2019-05-10T07:54:47.730Z,8.03
2019-05-10T07:57:18.654Z,5.08
2019-05-10T07:59:50.650Z,4.92
2019-05-10T08:02:16.499Z,4.30
2019-05-10T08:04:44.934Z,4.35
2019-05-10T08:07:13.517Z,4.33
2019-05-10T08:09:45.290Z,5.15
2019-05-10T08:12:12.896Z,5.17
2019-05-10T08:14:44.510Z,4.70
2019-05-10T08:17:12.618Z,4.80
2019-05-10T08:19:41.060Z,4.83
2019-05-10T08:22:09.590Z,4.40
2019-05-10T08:24:38.095Z,4.40
2019-05-10T08:27:11.438Z,4.30
2019-05-10T08:29:42.771Z,4.85
2019-05-10T08:32:12.651Z,5.72
2019-05-10T08:34:51.664Z,5.80
2019-05-10T08:37:19.411Z,5.85
2019-05-10T08:39:49.067Z,5.45
2019-05-10T08:42:34.752Z,4.33
2019-05-10T08:44:44.940Z,4.30
2019-05-10T08:47:22.505Z,4.00
2019-05-10T08:49:57.028Z,4.25
2019-05-10T08:52:14.137Z,4.65
2019-05-10T08:54:42.605Z,4.93
2019-05-10T08:57:17.932Z,5.05
2019-05-10T08:59:42.659Z,5.05
2019-05-10T09:02:12.620Z,5.70
2019-05-10T09:04:48.678Z,5.10
2019-05-10T09:07:12.027Z,5.62
2019-05-10T09:09:45.592Z,5.90
2019-05-10T09:12:12.285Z,4.95
2019-05-10T09:14:42.617Z,4.45
2019-05-10T09:17:14.823Z,4.22
2019-05-10T09:19:44.112Z,4.28
2019-05-10T09:22:12.494Z,3.70
2019-05-10T09:24:48.455Z,3.60
2019-05-10T09:27:12.890Z,3.02
2019-05-10T09:29:43.074Z,3.47
2019-05-10T09:32:12.591Z,3.72
2019-05-10T09:37:14.536Z,3.90
2019-05-10T09:39:42.395Z,3.83
2019-05-10T09:42:24.894Z,4.37
2019-05-10T09:44:45.593Z,4.85
2019-05-10T09:47:12.057Z,6.33
2019-05-10T09:49:46.915Z,6.75
2019-05-10T09:52:12.720Z,6.70
2019-05-10T09:54:41.217Z,5.00
2019-05-10T09:57:09.665Z,4.60
2019-05-10T09:59:38.256Z,3.15
2019-05-10T10:02:14.521Z,2.90
2019-05-10T10:04:37.281Z,2.87
2019-05-10T10:07:05.986Z,2.58
2019-05-10T10:09:41.955Z,2.47
2019-05-10T10:12:06.801Z,2.60
2019-05-10T10:14:39.433Z,2.98
2019-05-10T10:17:05.196Z,2.90
2019-05-10T10:19:33.709Z,3.30
2019-05-10T10:22:05.587Z,3.90
2019-05-10T10:24:32.417Z,4.80
2019-05-10T10:27:00.928Z,3.52
2019-05-10T10:29:34.157Z,4.30
2019-05-10T10:31:59.595Z,4.72
2019-05-10T10:34:32.539Z,3.95
2019-05-10T10:36:58.270Z,3.70
2019-05-10T10:39:27.718Z,3.85
2019-05-10T10:41:57.106Z,3.80
2019-05-10T10:44:27.057Z,3.83
2019-05-10T10:46:58.078Z,3.98
2019-05-10T10:49:30.245Z,3.98
2019-05-10T10:51:57.401Z,4.20
2019-05-10T10:54:28.005Z,4.37
2019-05-10T10:56:59.231Z,5.33
2019-05-10T10:59:26.545Z,5.72
2019-05-10T11:02:25.368Z,5.45
2019-05-10T11:04:26.786Z,6.35
2019-05-10T11:07:09.279Z,6.70
2019-05-10T11:09:25.506Z,7.55
2019-05-10T11:11:53.952Z,7.50
2019-05-10T11:14:22.394Z,9.20
2019-05-10T11:16:52.858Z,9.55
2019-05-10T11:19:21.037Z,7.53
2019-05-10T11:21:51.448Z,6.60
2019-05-10T11:24:22.425Z,7.37
2019-05-10T11:26:51.686Z,6.65
2019-05-10T11:29:26.268Z,7.55
2019-05-10T11:32:11.121Z,6.95
2019-05-10T11:34:21.623Z,6.10
2019-05-10T11:39:26.136Z,5.60
2019-05-10T11:41:52.758Z,5.75
2019-05-10T11:44:22.065Z,5.55
2019-05-10T11:46:51.179Z,6.92
2019-05-10T11:49:34.930Z,6.42
2019-05-10T11:51:54.757Z,6.83
2019-05-10T11:54:23.758Z,5.40
2019-05-10T11:56:52.515Z,4.17
2019-05-10T11:59:27.297Z,6.42
2019-05-10T12:01:57.944Z,6.22
2019-05-10T12:06:52.992Z,8.20
2019-05-10T12:09:24.489Z,9.05
2019-05-10T12:11:55.532Z,8.88
2019-05-10T12:14:22.293Z,8.60
2019-05-10T12:16:54.548Z,8.10
2019-05-10T12:19:21.531Z,7.65
2019-05-10T12:21:55.595Z,7.95
2019-05-10T12:24:39.018Z,7.85
2019-05-10T12:26:16.200Z,7.70
2019-05-10T12:27:16.832Z,8.03
2019-05-10T12:29:21.386Z,8.10
2019-05-10T12:31:55.079Z,6.97
2019-05-10T12:34:20.672Z,7.50
2019-05-10T12:36:51.743Z,6.83
2019-05-10T12:39:21.408Z,7.00
2019-05-10T12:41:52.898Z,7.30
2019-05-10T12:44:21.406Z,8.90
2019-05-10T12:46:50.995Z,9.53
2019-05-10T12:49:21.467Z,12.07
2019-05-10T12:51:51.344Z,17.07
2019-05-10T12:54:23.820Z,15.68
2019-05-10T12:56:50.255Z,15.55
2019-05-10T12:59:18.721Z,11.55
2019-05-10T13:01:47.240Z,14.55
2019-05-10T13:04:17.032Z,12.60
2019-05-10T13:06:45.640Z,12.58
2019-05-10T13:09:14.088Z,15.08
2019-05-10T13:11:42.689Z,16.75
2019-05-10T13:14:12.695Z,16.73
2019-05-10T13:16:41.137Z,13.83
2019-05-10T13:19:14.175Z,16.12
2019-05-10T13:21:40.269Z,13.53
2019-05-10T13:24:08.781Z,16.60
2019-05-10T13:26:37.226Z,19.73
2019-05-10T13:29:07.921Z,17.57
2019-05-10T13:31:42.019Z,17.20
2019-05-10T13:34:06.157Z,16.07
2019-05-10T13:36:37.255Z,16.02
2019-05-10T13:39:06.348Z,16.85
2019-05-10T13:41:34.798Z,16.17
2019-05-10T13:44:05.008Z,20.02
2019-05-10T13:46:34.685Z,22.60
2019-05-10T13:49:03.156Z,16.30
2019-05-10T13:51:31.652Z,8.28
2019-05-10T13:54:00.909Z,9.60
2019-05-10T13:56:30.352Z,9.08
2019-05-10T13:59:13.583Z,12.10
2019-05-10T14:01:29.085Z,9.55
2019-05-10T14:04:01.049Z,7.90
2019-05-10T14:06:27.798Z,7.90
2019-05-10T14:08:56.301Z,8.98
2019-05-10T14:11:24.764Z,10.15
2019-05-10T14:13:53.373Z,9.13
2019-05-10T14:16:22.600Z,10.48
2019-05-10T14:18:51.254Z,10.30
2019-05-10T14:21:20.128Z,10.30
2019-05-10T14:23:50.162Z,13.62
2019-05-10T14:26:18.614Z,15.05
2019-05-10T14:28:52.265Z,14.73
2019-05-10T14:31:17.442Z,16.42
2019-05-10T14:33:49.655Z,19.23
2019-05-10T14:36:16.950Z,19.90
2019-05-10T14:38:47.353Z,19.00
2019-05-10T14:41:15.787Z,18.32
2019-05-10T14:43:44.521Z,19.40
2019-05-10T14:46:14.474Z,21.27
2019-05-10T14:48:52.123Z,21.65
2019-05-10T14:51:20.626Z,21.50
2019-05-10T14:53:50.182Z,16.73
2019-05-10T14:56:18.783Z,16.90
2019-05-10T14:58:50.171Z,17.32
2019-05-10T15:01:20.665Z,17.55
2019-05-10T15:03:49.246Z,23.20
2019-05-10T15:06:18.511Z,27.98
2019-05-10T15:08:47.025Z,29.80
2019-05-10T15:11:15.479Z,24.30
2019-05-10T15:13:44.219Z,21.23
2019-05-10T15:16:19.030Z,20.57
2019-05-10T15:18:43.614Z,17.92
2019-05-10T15:21:12.197Z,24.15
2019-05-10T15:23:40.858Z,25.55
2019-05-10T15:26:15.009Z,28.77
2019-05-10T15:28:59.821Z,31.33
2019-05-10T15:31:34.745Z,28.47
2019-05-10T15:34:08.769Z,28.00
2019-05-10T15:36:39.176Z,28.12
2019-05-10T15:39:07.853Z,26.68
2019-05-10T15:41:36.881Z,27.03
2019-05-10T15:44:06.652Z,26.97
2019-05-10T15:46:39.330Z,26.68
2019-05-10T15:49:13.376Z,26.07
2019-05-10T15:51:41.812Z,27.65
2019-05-10T15:54:10.359Z,32.17
2019-05-10T15:56:41.816Z,30.57
2019-05-10T15:59:12.614Z,26.25
2019-05-10T16:01:39.177Z,27.70
2019-05-10T16:04:07.726Z,23.05
2019-05-10T16:06:37.803Z,20.82
2019-05-10T16:09:17.112Z,19.30
2019-05-10T16:11:38.652Z,15.35
2019-05-10T16:14:07.257Z,17.10
2019-05-10T16:16:39.471Z,15.28
2019-05-10T16:19:05.977Z,17.23
2019-05-10T16:21:34.434Z,19.60
2019-05-10T16:24:02.894Z,18.87
2019-05-10T16:26:34.483Z,20.65
2019-05-10T16:29:03.513Z,23.75
2019-05-10T16:31:32.074Z,23.50
2019-05-10T16:34:00.614Z,19.00
2019-05-10T16:36:30.171Z,15.03
2019-05-10T16:41:28.222Z,18.95
2019-05-10T16:44:00.187Z,20.95
2019-05-10T16:46:27.270Z,19.98
2019-05-10T16:48:55.827Z,20.33
2019-05-10T16:51:24.437Z,20.65
2019-05-10T16:53:52.958Z,24.07
2019-05-10T16:56:21.463Z,22.85
2019-05-10T16:58:53.156Z,24.67
2019-05-10T17:01:25.146Z,26.40
2019-05-10T17:03:59.689Z,28.65
2019-05-10T17:06:21.821Z,30.48
2019-05-10T17:08:50.459Z,31.82
2019-05-10T17:11:28.209Z,31.70
2019-05-10T17:14:04.823Z,37.03
2019-05-10T17:16:33.804Z,44.58
2019-05-10T17:19:02.316Z,47.27
2019-05-10T17:21:30.796Z,37.48
2019-05-10T17:23:59.353Z,38.70
2019-05-10T17:26:28.000Z,38.75
2019-05-10T17:28:56.490Z,45.27
2019-05-10T17:31:25.157Z,49.88
2019-05-10T17:33:53.658Z,46.60
2019-05-10T17:36:22.109Z,42.90
2019-05-10T17:38:53.714Z,43.42
2019-05-10T17:41:24.961Z,42.75
2019-05-10T17:43:51.069Z,51.58
2019-05-10T17:46:20.823Z,46.35
2019-05-10T17:48:49.634Z,46.33
2019-05-10T17:51:18.117Z,35.43
2019-05-10T17:53:47.949Z,50.78
2019-05-10T17:56:16.461Z,52.40
2019-05-10T17:58:44.907Z,44.33
2019-05-10T18:01:13.378Z,47.62
2019-05-10T18:03:41.827Z,59.77
2019-05-10T18:06:22.987Z,58.33
2019-05-10T18:08:40.481Z,57.88
2019-05-10T18:11:08.932Z,58.73
2019-05-10T18:13:40.859Z,53.87
2019-05-10T18:16:09.371Z,56.92
2019-05-10T18:18:46.319Z,56.70
2019-05-10T18:21:15.885Z,62.30
2019-05-10T18:23:41.537Z,62.90
2019-05-10T18:26:09.998Z,69.32
2019-05-10T18:28:38.526Z,67.53
2019-05-10T18:31:08.603Z,65.20
2019-05-10T18:33:37.211Z,70.67
2019-05-10T18:36:10.829Z,77.87
2019-05-10T18:38:39.045Z,73.05
2019-05-10T18:41:10.064Z,72.42
2019-05-10T18:43:40.651Z,75.80
2019-05-10T18:46:08.539Z,77.00
2019-05-10T18:48:37.176Z,72.10
2019-05-10T18:51:05.735Z,76.87
2019-05-10T18:53:34.313Z,73.12
2019-05-10T18:56:02.942Z,85.70
2019-05-10T18:58:31.773Z,86.78
2019-05-10T19:01:02.087Z,90.65
2019-05-10T19:03:33.581Z,86.30
2019-05-10T19:06:10.773Z,80.15
2019-05-10T19:08:33.588Z,82.00
2019-05-10T19:11:03.251Z,79.80
2019-05-10T19:13:34.462Z,80.00
2019-05-10T19:16:03.172Z,81.60
2019-05-10T19:18:31.686Z,86.82
2019-05-10T19:21:00.213Z,107.50
2019-05-10T19:23:28.720Z,84.37
2019-05-10T19:26:03.341Z,87.80
2019-05-10T19:28:31.824Z,91.50
2019-05-10T19:31:00.588Z,88.62
2019-05-10T19:33:36.339Z,86.65
2019-05-10T19:36:02.245Z,86.20
2019-05-10T19:38:30.793Z,97.12
2019-05-10T19:40:59.321Z,128.47
2019-05-10T19:43:27.800Z,136.28
2019-05-10T19:45:57.604Z,193.17
2019-05-10T19:48:29.259Z,172.53
2019-05-10T19:50:56.832Z,192.85
2019-05-10T19:53:26.890Z,185.97
2019-05-10T19:55:57.313Z,206.23
2019-05-10T19:58:31.553Z,204.00
2019-05-10T20:00:56.514Z,203.27
2019-05-10T20:03:24.986Z,199.77
2019-05-10T20:05:55.114Z,160.07
2019-05-10T20:08:23.763Z,139.80
2019-05-10T20:10:52.281Z,135.75
2019-05-10T20:13:20.737Z,136.77
2019-05-10T20:15:49.332Z,132.80
2019-05-10T20:18:17.924Z,137.05
2019-05-10T20:20:46.447Z,119.85
2019-05-10T20:23:15.005Z,111.92
2019-05-10T20:25:43.458Z,115.65
2019-05-10T20:28:11.986Z,113.52
2019-05-10T20:30:40.468Z,114.97
2019-05-10T20:33:09.006Z,114.88
2019-05-10T20:35:37.470Z,113.88
2019-05-10T20:38:06.073Z,94.03
2019-05-10T20:40:37.139Z,102.27
2019-05-10T20:43:06.435Z,97.05
2019-05-10T20:45:34.993Z,81.55
2019-05-10T20:48:03.735Z,83.97
2019-05-10T20:50:32.324Z,89.70
2019-05-10T20:53:00.876Z,86.75
2019-05-10T20:55:29.329Z,84.15
2019-05-10T20:57:57.788Z,84.07
2019-05-10T21:00:26.618Z,79.25
2019-05-10T21:02:55.095Z,81.35
2019-05-10T21:05:23.821Z,71.95
2019-05-10T21:07:52.328Z,74.13
2019-05-10T21:10:20.864Z,76.92
2019-05-10T21:12:49.393Z,68.02
2019-05-10T21:15:17.929Z,67.45
2019-05-10T21:17:46.391Z,74.45
2019-05-10T21:20:15.082Z,69.72
2019-05-10T21:22:43.595Z,75.67
2019-05-10T21:25:12.219Z,67.20
2019-05-10T21:27:40.672Z,70.47
2019-05-10T21:30:10.086Z,68.42
2019-05-10T21:32:40.081Z,69.22
2019-05-10T21:35:08.741Z,67.00
2019-05-10T21:37:37.237Z,61.70
2019-05-10T21:40:09.304Z,61.85
2019-05-10T21:42:37.761Z,63.15
2019-05-10T21:45:06.449Z,61.37
2019-05-10T21:47:49.539Z,60.33
2019-05-10T21:50:06.782Z,56.42
2019-05-10T21:52:35.300Z,56.15
2019-05-10T21:55:04.294Z,57.00
2019-05-10T21:57:32.922Z,56.18
2019-05-10T22:00:01.423Z,53.63
2019-05-10T22:02:30.417Z,52.13
2019-05-10T22:04:58.856Z,54.40
2019-05-10T22:07:27.353Z,51.08
2019-05-10T22:09:55.814Z,47.65
2019-05-10T22:12:24.266Z,49.13
2019-05-10T22:14:52.744Z,47.05
2019-05-10T22:17:21.190Z,46.23
2019-05-10T22:19:49.690Z,40.90
2019-05-10T22:22:18.201Z,43.38
2019-05-10T22:24:46.657Z,35.13
2019-05-10T22:27:15.100Z,39.35
2019-05-10T22:29:43.672Z,39.20
2019-05-10T22:32:12.122Z,37.90
2019-05-10T22:34:40.614Z,37.17
2019-05-10T22:37:09.102Z,32.80
2019-05-10T22:39:37.558Z,34.78
2019-05-10T22:42:06.097Z,33.85
2019-05-10T22:44:34.618Z,35.13
2019-05-10T22:47:03.065Z,33.85
2019-05-10T22:49:31.587Z,38.83
2019-05-10T22:52:00.079Z,39.75
2019-05-10T22:54:28.542Z,40.40
2019-05-10T22:56:57.074Z,41.53
2019-05-10T22:59:25.558Z,41.55
2019-05-10T23:01:53.996Z,41.00
2019-05-10T23:04:22.747Z,46.08
2019-05-10T23:06:51.217Z,43.67
2019-05-10T23:09:24.832Z,41.85
2019-05-10T23:11:49.985Z,40.83
2019-05-10T23:14:18.561Z,41.63
2019-05-10T23:16:47.021Z,42.45
2019-05-10T23:19:15.464Z,43.75
2019-05-10T23:21:43.962Z,56.20
2019-05-10T23:24:14.055Z,64.05
2019-05-10T23:26:42.582Z,58.98
2019-05-10T23:29:11.063Z,67.65
2019-05-10T23:31:39.506Z,66.87
2019-05-10T23:34:07.968Z,66.15
2019-05-10T23:36:36.531Z,65.00
2019-05-10T23:39:07.136Z,66.02
2019-05-10T23:41:35.647Z,70.70
2019-05-10T23:44:04.261Z,71.42
2019-05-10T23:46:34.429Z,74.75
2019-05-10T23:49:02.889Z,72.65
2019-05-10T23:51:31.372Z,73.07
2019-05-10T23:53:59.825Z,72.58
2019-05-10T23:56:28.370Z,77.32
2019-05-10T23:58:56.885Z,75.78
